createdAt,value
2023-03-18T00:00:01.893Z,23.45
2023-03-18T00:02:28.946Z,24.20
2023-03-18T00:04:55.491Z,20.85
2023-03-18T00:07:22.529Z,16.90
2023-03-18T00:09:49.377Z,12.95
2023-03-18T00:12:15.886Z,20.08
2023-03-18T00:14:42.416Z,9.98
2023-03-18T00:17:09.609Z,19.92
2023-03-18T00:19:36.112Z,13.23
2023-03-18T00:22:02.643Z,12.18
2023-03-18T00:24:31.472Z,21.42
2023-03-18T00:26:58.240Z,15.85
2023-03-18T00:29:25.328Z,16.02
2023-03-18T00:31:51.964Z,18.02
2023-03-18T00:34:18.698Z,19.13
2023-03-18T00:36:45.797Z,17.55
2023-03-18T00:39:13.322Z,18.67
2023-03-18T00:41:39.884Z,12.98
2023-03-18T00:44:07.620Z,12.05
2023-03-18T00:46:36.424Z,11.07
2023-03-18T00:49:05.842Z,14.15
2023-03-18T00:51:37.392Z,13.18
2023-03-18T00:54:07.326Z,12.15
2023-03-18T00:56:36.822Z,16.05
2023-03-18T00:59:04.791Z,16.90
2023-03-18T01:01:31.519Z,19.50
2023-03-18T01:03:58.632Z,20.75
2023-03-18T01:06:30.622Z,19.80
2023-03-18T01:08:58.684Z,15.25
2023-03-18T01:11:26.063Z,15.57
2023-03-18T01:13:53.177Z,20.27
2023-03-18T01:16:21.143Z,15.30
2023-03-18T01:18:48.107Z,21.60
2023-03-18T01:21:15.435Z,16.90
2023-03-18T01:23:44.769Z,16.48
2023-03-18T01:26:11.447Z,13.70
2023-03-18T01:28:38.297Z,12.45
2023-03-18T01:31:04.875Z,17.08
2023-03-18T01:33:31.817Z,15.88
2023-03-18T01:36:00.436Z,10.95
2023-03-18T01:38:31.339Z,19.63
2023-03-18T01:41:00.104Z,20.90
2023-03-18T01:43:35.235Z,20.55
2023-03-18T01:46:23.539Z,11.63
2023-03-18T01:48:52.113Z,22.15
2023-03-18T01:51:20.361Z,22.63
2023-03-18T01:53:49.894Z,21.55
2023-03-18T01:56:18.736Z,18.63
2023-03-18T01:58:47.890Z,16.33
2023-03-18T02:01:22.628Z,18.85
2023-03-18T02:03:51.145Z,19.30
2023-03-18T02:06:18.428Z,20.98
2023-03-18T02:08:45.371Z,18.05
2023-03-18T02:11:12.632Z,18.23
2023-03-18T02:13:42.660Z,17.65
2023-03-18T02:16:15.784Z,14.13
2023-03-18T02:18:49.054Z,10.88
2023-03-18T02:21:53.028Z,11.50
2023-03-18T02:24:32.546Z,13.18
2023-03-18T02:27:12.312Z,13.48
2023-03-18T02:29:41.387Z,7.85
2023-03-18T02:32:09.133Z,10.65
2023-03-18T02:34:37.953Z,10.15
2023-03-18T02:37:04.508Z,11.73
2023-03-18T02:39:31.680Z,9.68
2023-03-18T02:41:58.257Z,9.15
2023-03-18T02:44:25.675Z,9.45
2023-03-18T02:46:59.516Z,6.95
2023-03-18T02:49:27.732Z,11.20
2023-03-18T02:51:55.376Z,10.30
2023-03-18T02:54:27.940Z,7.20
2023-03-18T02:56:55.566Z,10.68
2023-03-18T02:59:23.033Z,9.45
2023-03-18T03:01:52.326Z,13.63
2023-03-18T03:04:20.908Z,13.05
2023-03-18T03:06:47.511Z,10.02
2023-03-18T03:09:16.264Z,10.38
2023-03-18T03:11:45.175Z,10.65
2023-03-18T03:14:12.974Z,12.13
2023-03-18T03:16:39.954Z,8.18
2023-03-18T03:19:07.067Z,11.63
2023-03-18T03:21:35.965Z,6.47
2023-03-18T03:24:07.697Z,11.88
2023-03-18T03:26:35.057Z,11.00
2023-03-18T03:29:02.295Z,7.40
2023-03-18T03:31:29.033Z,10.35
2023-03-18T03:33:55.644Z,10.95
2023-03-18T03:36:23.442Z,9.05
2023-03-18T03:38:50.620Z,8.07
2023-03-18T03:41:17.385Z,10.77
2023-03-18T03:43:44.886Z,8.52
2023-03-18T03:46:11.931Z,13.68
2023-03-18T03:48:39.632Z,12.77
2023-03-18T03:51:07.262Z,7.15
2023-03-18T03:53:34.167Z,8.98
2023-03-18T03:56:01.071Z,13.75
2023-03-18T03:58:27.907Z,17.08
2023-03-18T04:00:54.468Z,9.40
2023-03-18T04:03:20.995Z,11.65
2023-03-18T04:05:47.867Z,12.32
2023-03-18T04:08:14.411Z,11.13
2023-03-18T04:10:40.936Z,9.93
2023-03-18T04:13:07.559Z,11.50
2023-03-18T04:15:34.392Z,9.73
2023-03-18T04:18:06.723Z,10.80
2023-03-18T04:20:35.708Z,9.63
2023-03-18T04:23:02.797Z,7.00
2023-03-18T04:25:30.186Z,11.10
2023-03-18T04:27:57.140Z,17.45
2023-03-18T04:30:25.648Z,15.15
2023-03-18T04:32:52.965Z,8.18
2023-03-18T04:35:19.854Z,12.75
2023-03-18T04:37:46.385Z,14.82
2023-03-18T04:40:13.096Z,12.50
2023-03-18T04:42:40.577Z,12.25
2023-03-18T04:45:07.830Z,11.50
2023-03-18T04:47:35.899Z,11.43
2023-03-18T04:50:04.681Z,10.07
2023-03-18T04:52:31.649Z,12.02
2023-03-18T04:54:58.209Z,11.25
2023-03-18T04:57:25.242Z,8.40
2023-03-18T04:59:52.207Z,12.68
2023-03-18T05:02:19.571Z,10.10
2023-03-18T05:04:46.370Z,6.45
2023-03-18T05:07:15.582Z,7.55
2023-03-18T05:09:42.532Z,10.93
2023-03-18T05:12:15.975Z,6.78
2023-03-18T05:14:43.870Z,9.18
2023-03-18T05:17:15.826Z,9.15
2023-03-18T05:19:44.754Z,10.55
2023-03-18T05:22:11.831Z,6.25
2023-03-18T05:24:39.717Z,7.50
2023-03-18T05:27:07.128Z,12.25
2023-03-18T05:29:33.870Z,9.68
2023-03-18T05:32:00.463Z,10.27
2023-03-18T05:34:27.578Z,11.52
2023-03-18T05:36:54.088Z,10.70
2023-03-18T05:39:20.592Z,12.80
2023-03-18T05:41:47.182Z,14.13
2023-03-18T05:44:13.708Z,12.68
2023-03-18T05:46:40.201Z,10.65
2023-03-18T05:49:06.727Z,6.55
2023-03-18T05:51:33.208Z,10.60
2023-03-18T05:53:59.814Z,10.60
2023-03-18T05:56:26.422Z,10.30
2023-03-18T05:58:52.904Z,12.85
2023-03-18T06:01:20.242Z,8.23
2023-03-18T06:03:46.814Z,7.85
2023-03-18T06:06:13.366Z,9.43
2023-03-18T06:08:39.891Z,5.55
2023-03-18T06:11:06.733Z,9.85
2023-03-18T06:13:35.160Z,8.95
2023-03-18T06:16:01.720Z,8.10
2023-03-18T06:18:28.859Z,8.88
2023-03-18T06:20:56.287Z,13.57
2023-03-18T06:23:23.503Z,8.57
2023-03-18T06:25:50.349Z,9.55
2023-03-18T06:28:16.875Z,9.95
2023-03-18T06:30:43.440Z,10.77
2023-03-18T06:33:10.196Z,8.13
2023-03-18T06:35:36.913Z,9.25
2023-03-18T06:38:03.576Z,8.52
2023-03-18T06:40:30.150Z,13.98
2023-03-18T06:42:56.698Z,10.45
2023-03-18T06:45:23.483Z,11.20
2023-03-18T06:47:50.014Z,11.48
2023-03-18T06:50:16.548Z,10.82
2023-03-18T06:52:43.628Z,7.88
2023-03-18T06:55:10.877Z,13.05
2023-03-18T06:57:37.405Z,5.43
2023-03-18T07:00:05.239Z,9.95
2023-03-18T07:02:32.033Z,7.13
2023-03-18T07:05:00.250Z,8.43
2023-03-18T07:07:26.894Z,9.35
2023-03-18T07:09:53.544Z,8.15
2023-03-18T07:12:20.022Z,9.90
2023-03-18T07:14:47.138Z,7.38
2023-03-18T07:17:14.554Z,7.60
2023-03-18T07:19:41.954Z,6.95
2023-03-18T07:22:08.760Z,7.45
2023-03-18T07:24:36.102Z,11.70
2023-03-18T07:27:02.834Z,7.78
2023-03-18T07:29:29.344Z,5.82
2023-03-18T07:31:55.916Z,9.82
2023-03-18T07:34:22.783Z,7.85
2023-03-18T07:36:49.417Z,9.45
2023-03-18T07:39:16.079Z,6.68
2023-03-18T07:41:42.971Z,9.93
2023-03-18T07:44:09.615Z,10.15
2023-03-18T07:46:36.392Z,8.25
2023-03-18T07:49:03.158Z,11.48
2023-03-18T07:51:31.953Z,8.60
2023-03-18T07:53:58.940Z,9.20
2023-03-18T07:56:27.223Z,9.60
2023-03-18T07:58:53.733Z,6.82
2023-03-18T08:01:20.612Z,8.63
2023-03-18T08:03:47.766Z,10.23
2023-03-18T08:06:15.799Z,8.00
2023-03-18T08:08:42.906Z,9.60
2023-03-18T08:11:09.979Z,7.63
2023-03-18T08:13:37.751Z,7.63
2023-03-18T08:16:04.899Z,7.95
2023-03-18T08:18:31.864Z,9.10
2023-03-18T08:20:58.502Z,7.45
2023-03-18T08:23:25.562Z,7.22
2023-03-18T08:25:52.716Z,7.63
2023-03-18T08:28:19.682Z,6.65
2023-03-18T08:30:46.974Z,7.22
2023-03-18T08:33:13.610Z,8.68
2023-03-18T08:35:44.116Z,9.10
2023-03-18T08:38:10.704Z,9.25
2023-03-18T08:40:37.269Z,8.73
2023-03-18T08:43:03.778Z,8.70
2023-03-18T08:45:30.697Z,9.07
2023-03-18T08:47:57.384Z,9.98
2023-03-18T08:50:28.511Z,9.88
2023-03-18T08:53:00.617Z,8.10
2023-03-18T08:55:34.524Z,7.43
2023-03-18T08:58:01.737Z,8.50
2023-03-18T09:00:28.422Z,6.68
2023-03-18T09:02:55.049Z,10.27
2023-03-18T09:05:22.312Z,7.85
2023-03-18T09:07:48.862Z,6.00
2023-03-18T09:10:17.370Z,5.70
2023-03-18T09:12:45.544Z,7.22
2023-03-18T09:15:17.400Z,7.85
2023-03-18T09:18:00.022Z,6.80
2023-03-18T09:20:32.829Z,6.60
2023-03-18T09:23:00.037Z,8.85
2023-03-18T09:25:27.136Z,9.57
2023-03-18T09:27:53.842Z,7.47
2023-03-18T09:30:20.933Z,8.50
2023-03-18T09:32:47.507Z,6.30
2023-03-18T09:35:14.378Z,8.60
2023-03-18T09:37:40.896Z,7.05
2023-03-18T09:40:08.687Z,6.63
2023-03-18T09:42:52.016Z,7.80
2023-03-18T09:45:28.481Z,7.40
2023-03-18T09:48:20.072Z,8.73
2023-03-18T09:51:06.132Z,9.48
2023-03-18T09:53:44.064Z,7.53
2023-03-18T09:56:21.093Z,11.43
2023-03-18T09:58:58.434Z,11.57
2023-03-18T10:01:28.436Z,8.15
2023-03-18T10:04:01.743Z,11.05
2023-03-18T10:06:28.963Z,7.43
2023-03-18T10:09:08.041Z,9.48
2023-03-18T10:11:49.833Z,7.38
2023-03-18T10:14:49.812Z,9.10
2023-03-18T10:17:37.551Z,9.02
2023-03-18T10:20:18.397Z,9.18
2023-03-18T10:22:57.686Z,8.18
2023-03-18T10:25:38.766Z,9.00
2023-03-18T10:28:23.473Z,6.78
2023-03-18T10:31:22.535Z,7.55
2023-03-18T10:34:02.176Z,9.77
2023-03-18T10:36:39.523Z,8.80
2023-03-18T10:39:16.434Z,8.27
2023-03-18T10:41:47.426Z,6.97
2023-03-18T10:44:28.686Z,7.57
2023-03-18T10:47:19.140Z,7.70
2023-03-18T10:50:02.211Z,6.55
2023-03-18T10:52:38.929Z,5.80
2023-03-18T10:55:16.966Z,8.82
2023-03-18T10:57:43.738Z,7.45
2023-03-18T11:00:35.782Z,9.02
2023-03-18T11:03:05.748Z,8.35
2023-03-18T11:05:35.926Z,7.88
2023-03-18T11:08:06.588Z,9.10
2023-03-18T11:10:37.116Z,10.55
2023-03-18T11:13:04.306Z,7.60
2023-03-18T11:15:38.449Z,7.00
2023-03-18T11:18:05.925Z,7.40
2023-03-18T11:20:44.296Z,8.77
2023-03-18T11:23:58.548Z,9.32
2023-03-18T11:26:27.825Z,5.28
2023-03-18T11:28:56.761Z,9.55
2023-03-18T11:31:23.495Z,9.27
2023-03-18T11:33:49.987Z,9.60
2023-03-18T11:36:24.198Z,7.32
2023-03-18T11:39:06.280Z,7.50
2023-03-18T11:41:32.807Z,10.63
2023-03-18T11:44:02.080Z,7.13
2023-03-18T11:47:14.940Z,9.85
2023-03-18T11:49:43.975Z,10.85
2023-03-18T11:52:39.597Z,7.10
2023-03-18T11:55:15.820Z,10.20
2023-03-18T11:58:10.543Z,9.73
2023-03-18T12:00:50.454Z,8.80
2023-03-18T12:03:31.957Z,8.25
2023-03-18T12:06:10.641Z,11.15
2023-03-18T12:08:48.033Z,8.65
2023-03-18T12:11:36.028Z,10.38
2023-03-18T12:14:21.362Z,9.07
2023-03-18T12:17:20.754Z,9.73
2023-03-18T12:20:05.673Z,9.73
2023-03-18T12:22:41.341Z,9.02
2023-03-18T12:25:18.910Z,13.40
2023-03-18T12:28:02.888Z,9.20
2023-03-18T12:30:29.350Z,8.20
2023-03-18T12:33:56.333Z,8.20
2023-03-18T12:36:36.108Z,10.10
2023-03-18T12:39:13.020Z,8.65
2023-03-18T12:41:57.750Z,8.05
2023-03-18T12:44:46.815Z,12.38
2023-03-18T12:47:15.931Z,7.53
2023-03-18T12:49:50.412Z,9.45
2023-03-18T12:52:44.727Z,10.88
2023-03-18T12:55:21.801Z,12.10
2023-03-18T12:58:03.298Z,10.75
2023-03-18T13:00:34.877Z,10.15
2023-03-18T13:03:21.913Z,7.93
2023-03-18T13:05:53.489Z,7.85
2023-03-18T13:08:28.994Z,8.95
2023-03-18T13:11:27.034Z,8.88
2023-03-18T13:14:00.462Z,7.38
2023-03-18T13:16:28.596Z,8.82
2023-03-18T13:18:57.728Z,8.23
2023-03-18T13:21:29.820Z,10.40
2023-03-18T13:24:30.180Z,8.27
2023-03-18T13:27:23.523Z,5.90
2023-03-18T13:30:19.495Z,12.95
2023-03-18T13:33:19.109Z,8.48
2023-03-18T13:36:08.765Z,10.57
2023-03-18T13:39:00.706Z,7.22
2023-03-18T13:41:36.315Z,11.20
2023-03-18T13:44:16.358Z,10.77
2023-03-18T13:46:54.372Z,10.13
2023-03-18T13:49:24.417Z,10.98
2023-03-18T13:51:58.511Z,10.05
2023-03-18T13:54:33.139Z,10.18
2023-03-18T13:57:32.485Z,10.60
2023-03-18T14:00:27.057Z,11.90
2023-03-18T14:03:24.109Z,12.90
2023-03-18T14:06:11.590Z,8.40
2023-03-18T14:08:38.287Z,10.80
2023-03-18T14:11:16.894Z,8.40
2023-03-18T14:13:45.023Z,9.93
2023-03-18T14:16:14.913Z,11.25
2023-03-18T14:18:41.827Z,10.35
2023-03-18T14:21:28.318Z,7.63
2023-03-18T14:24:23.711Z,9.98
2023-03-18T14:27:05.107Z,8.05
2023-03-18T14:29:37.396Z,9.90
2023-03-18T14:32:36.446Z,10.77
2023-03-18T14:35:18.144Z,7.68
2023-03-18T14:38:22.319Z,9.23
2023-03-18T14:40:53.787Z,11.73
2023-03-18T14:43:33.894Z,12.00
2023-03-18T14:46:06.021Z,8.48
2023-03-18T14:48:34.603Z,8.95
2023-03-18T14:51:11.356Z,13.52
2023-03-18T14:53:41.800Z,11.73
2023-03-18T14:56:23.203Z,10.20
2023-03-18T14:58:53.712Z,11.35
2023-03-18T15:01:24.977Z,6.90
2023-03-18T15:03:53.066Z,10.13
2023-03-18T15:06:23.209Z,10.20
2023-03-18T15:09:06.577Z,8.85
2023-03-18T15:11:41.318Z,13.35
2023-03-18T15:14:30.149Z,8.30
2023-03-18T15:17:01.436Z,7.30
2023-03-18T15:19:29.087Z,12.07
2023-03-18T15:21:59.017Z,8.23
2023-03-18T15:24:26.977Z,10.23
2023-03-18T15:27:18.634Z,13.23
2023-03-18T15:29:52.936Z,6.45
2023-03-18T15:32:28.504Z,13.40
2023-03-18T15:35:11.236Z,9.88
2023-03-18T15:37:42.785Z,12.23
2023-03-18T15:40:30.945Z,8.13
2023-03-18T15:43:08.514Z,9.88
2023-03-18T15:45:35.991Z,10.70
2023-03-18T15:48:08.771Z,7.95
2023-03-18T15:50:36.895Z,9.35
2023-03-18T15:53:20.406Z,12.63
2023-03-18T15:55:50.814Z,8.45
2023-03-18T15:58:34.461Z,13.45
2023-03-18T16:01:01.566Z,7.43
2023-03-18T16:03:31.854Z,13.80
2023-03-18T16:05:58.407Z,13.30
2023-03-18T16:08:25.004Z,12.43
2023-03-18T16:11:02.018Z,11.30
2023-03-18T16:13:32.191Z,10.85
2023-03-18T16:15:59.057Z,20.40
2023-03-18T16:18:25.924Z,8.88
2023-03-18T16:20:53.950Z,11.93
2023-03-18T16:23:20.967Z,13.93
2023-03-18T16:25:51.809Z,13.48
2023-03-18T16:28:25.070Z,9.63
2023-03-18T16:30:53.551Z,11.88
2023-03-18T16:33:20.691Z,8.00
2023-03-18T16:35:57.126Z,8.85
2023-03-18T16:38:24.737Z,13.77
2023-03-18T16:40:53.853Z,13.45
2023-03-18T16:43:28.086Z,10.23
2023-03-18T16:46:00.753Z,9.13
2023-03-18T16:48:27.830Z,11.20
2023-03-18T16:50:56.782Z,9.57
2023-03-18T16:53:28.388Z,11.45
2023-03-18T16:55:58.425Z,16.05
2023-03-18T16:58:33.875Z,12.52
2023-03-18T17:01:00.580Z,11.00
2023-03-18T17:03:27.392Z,14.68
2023-03-18T17:05:53.955Z,13.27
2023-03-18T17:08:21.895Z,13.98
2023-03-18T17:10:51.564Z,13.57
2023-03-18T17:13:27.584Z,18.98
2023-03-18T17:15:54.330Z,35.05
2023-03-18T17:18:22.993Z,22.75
2023-03-18T17:20:50.453Z,30.17
2023-03-18T17:23:23.175Z,49.90
2023-03-18T17:25:53.288Z,48.08
2023-03-18T17:28:37.258Z,22.30
2023-03-18T17:31:04.767Z,20.30
2023-03-18T17:33:34.721Z,22.38
2023-03-18T17:36:02.195Z,22.05
2023-03-18T17:38:31.201Z,19.15
2023-03-18T17:40:59.564Z,17.70
2023-03-18T17:43:34.871Z,18.38
2023-03-18T17:46:03.146Z,22.48
2023-03-18T17:48:32.142Z,19.35
2023-03-18T17:51:01.340Z,27.42
2023-03-18T17:53:37.509Z,25.85
2023-03-18T17:58:34.329Z,20.52
2023-03-18T18:01:05.842Z,16.50
2023-03-18T18:03:34.968Z,21.17
2023-03-18T18:06:02.202Z,24.38
2023-03-18T18:08:31.666Z,21.65
2023-03-18T18:11:20.837Z,21.40
2023-03-18T18:13:48.590Z,28.52
2023-03-18T18:16:15.190Z,34.30
2023-03-18T18:18:42.030Z,30.85
2023-03-18T18:21:27.243Z,31.90
2023-03-18T18:23:54.006Z,30.25
2023-03-18T18:26:22.149Z,34.60
2023-03-18T18:28:51.287Z,26.95
2023-03-18T18:31:19.822Z,26.70
2023-03-18T18:33:47.684Z,32.47
2023-03-18T18:36:14.411Z,36.35
2023-03-18T18:38:41.006Z,53.88
2023-03-18T18:41:08.512Z,17.70
2023-03-18T18:43:36.093Z,29.42
2023-03-18T18:46:02.816Z,25.85
2023-03-18T18:48:32.451Z,26.55
2023-03-18T18:51:00.501Z,28.77
2023-03-18T18:53:36.572Z,34.72
2023-03-18T18:58:51.865Z,26.92
2023-03-18T19:01:19.905Z,28.45
2023-03-18T19:03:47.075Z,31.83
2023-03-18T19:06:32.928Z,37.47
2023-03-18T19:09:01.756Z,29.73
2023-03-18T19:11:29.062Z,35.10
2023-03-18T19:14:17.530Z,32.15
2023-03-18T19:16:44.576Z,27.40
2023-03-18T19:19:15.171Z,30.00
2023-03-18T19:21:43.117Z,27.23
2023-03-18T19:24:30.592Z,29.13
2023-03-18T19:27:01.534Z,23.92
2023-03-18T19:29:28.932Z,31.85
2023-03-18T19:31:55.633Z,40.00
2023-03-18T19:34:23.529Z,48.88
2023-03-18T19:36:56.025Z,43.88
2023-03-18T19:39:23.002Z,44.80
2023-03-18T19:41:49.563Z,27.30
2023-03-18T19:44:21.757Z,28.58
2023-03-18T19:46:50.009Z,38.47
2023-03-18T19:49:24.803Z,31.40
2023-03-18T19:51:51.764Z,25.92
2023-03-18T19:54:25.571Z,30.05
2023-03-18T19:56:52.805Z,33.60
2023-03-18T19:59:38.180Z,23.48
2023-03-18T20:02:21.126Z,30.08
2023-03-18T20:04:52.612Z,30.27
2023-03-18T20:07:20.667Z,34.60
2023-03-18T20:09:48.064Z,29.77
2023-03-18T20:12:36.356Z,25.08
2023-03-18T20:15:04.651Z,27.85
2023-03-18T20:17:50.628Z,25.00
2023-03-18T20:20:23.424Z,27.85
2023-03-18T20:23:01.133Z,25.10
2023-03-18T20:25:36.870Z,27.38
2023-03-18T20:28:04.779Z,23.83
2023-03-18T20:30:37.812Z,25.58
2023-03-18T20:33:04.772Z,27.02
2023-03-18T20:35:34.768Z,28.15
2023-03-18T20:38:26.568Z,22.73
2023-03-18T20:40:53.429Z,22.13
2023-03-18T20:43:22.782Z,23.42
2023-03-18T20:45:51.853Z,25.02
2023-03-18T20:48:19.308Z,22.83
2023-03-18T20:50:46.835Z,17.15
2023-03-18T20:53:22.621Z,21.63
2023-03-18T20:55:50.106Z,16.88
2023-03-18T20:58:19.494Z,19.25
2023-03-18T21:00:46.689Z,21.70
2023-03-18T21:03:29.433Z,17.98
2023-03-18T21:05:57.959Z,24.17
2023-03-18T21:08:26.306Z,19.50
2023-03-18T21:10:53.751Z,26.23
2023-03-18T21:13:36.303Z,21.42
2023-03-18T21:16:04.275Z,18.60
2023-03-18T21:18:30.802Z,12.65
2023-03-18T21:20:59.204Z,17.80
2023-03-18T21:23:31.913Z,21.23
2023-03-18T21:25:58.792Z,19.90
2023-03-18T21:28:28.385Z,22.00
2023-03-18T21:30:58.322Z,23.55
2023-03-18T21:33:28.117Z,24.00
2023-03-18T21:35:57.255Z,16.05
2023-03-18T21:38:25.808Z,21.42
2023-03-18T21:40:55.588Z,19.83
2023-03-18T21:43:33.605Z,18.92
2023-03-18T21:46:01.724Z,21.35
2023-03-18T21:48:29.228Z,20.85
2023-03-18T21:50:55.990Z,23.38
2023-03-18T21:53:24.368Z,21.75
2023-03-18T21:55:52.235Z,21.98
2023-03-18T21:58:21.706Z,23.08
2023-03-18T22:00:57.217Z,24.80
2023-03-18T22:03:27.202Z,22.23
2023-03-18T22:05:54.616Z,22.48
2023-03-18T22:08:22.405Z,21.10
2023-03-18T22:10:50.620Z,22.02
2023-03-18T22:13:20.021Z,25.30
2023-03-18T22:15:51.789Z,21.55
2023-03-18T22:18:19.113Z,24.02
2023-03-18T22:20:47.774Z,20.67
2023-03-18T22:23:23.347Z,21.00
2023-03-18T22:25:53.055Z,23.58
2023-03-18T22:28:20.038Z,16.98
2023-03-18T22:30:52.135Z,18.88
2023-03-18T22:33:26.575Z,19.83
2023-03-18T22:35:54.207Z,25.92
2023-03-18T22:38:22.843Z,27.00
2023-03-18T22:40:52.794Z,21.90
2023-03-18T22:43:33.766Z,21.05
2023-03-18T22:46:03.342Z,23.77
2023-03-18T22:48:29.880Z,22.45
2023-03-18T22:50:59.287Z,24.42
2023-03-18T22:53:27.550Z,24.10
2023-03-18T22:55:55.573Z,32.60
2023-03-18T22:58:28.448Z,28.23
2023-03-18T23:00:56.031Z,26.52
2023-03-18T23:03:28.782Z,27.95
2023-03-18T23:05:57.118Z,32.13
2023-03-18T23:08:24.325Z,29.75
2023-03-18T23:10:53.184Z,37.40
2023-03-18T23:13:29.315Z,30.13
2023-03-18T23:15:56.495Z,37.05
2023-03-18T23:18:23.785Z,28.73
2023-03-18T23:20:51.829Z,41.15
2023-03-18T23:23:18.527Z,29.48
2023-03-18T23:25:46.156Z,35.33
2023-03-18T23:28:13.463Z,31.08
2023-03-18T23:30:42.484Z,29.98
2023-03-18T23:33:09.954Z,35.33
2023-03-18T23:35:37.582Z,32.70
2023-03-18T23:38:05.866Z,33.53
2023-03-18T23:40:32.867Z,50.75
2023-03-18T23:42:59.417Z,40.05
2023-03-18T23:45:27.158Z,43.78
2023-03-18T23:47:54.998Z,37.35
2023-03-18T23:50:22.142Z,54.90
2023-03-18T23:52:49.055Z,57.15
2023-03-18T23:55:33.036Z,48.13
2023-03-18T23:57:59.895Z,35.40
